Leeds And Bradford, United Kingdom

6:18 AM BST on April 28, 2015 (GMT +0100)
Yeadon | | Change Station
CLOSE
Current Station
Personal Weather Station
Location: Leeds, West Yorkshire
Elevation: 541 ft
Nearby Weather Stations

Elev 541 ft 53.87 °N, 1.69 °W | Updated 8 minutes ago

Scattered Clouds
Scattered Clouds
36.3 °F
Feels Like 30 °F
N
8.0
Wind Variable Wind from WSW
Gusts 8.0 mph

Today
High -- | Low -- °F
--% Chance of Precip.
Yesterday
High -- | Low -- °F
Precip. -- in
5:37 AM 8:31 PM
Waxing Gibbous, 71% visible
Pressure 29.74 in
Visibility 6.2 miles
Clouds Few 1500 ft
Scattered Clouds 2900 ft
Windchill 30 °F
Dew Point 33 °F
Humidity 87%
Rainfall 0.07 in
Snow Depth Not available.
UV 0 out of 12
Pollen Not available.
Air Quality Not available.
Flu Activity Not available.
METAR EGNM 280450Z 26015KT 230V290 9999 FEW015CB SCT029 02/01 Q1007

More Conditions Fewer Conditions

Pressure 29.74 in
Visibility 6.2 miles
Clouds Few 1500 ft
Scattered Clouds 2900 ft
Windchill 30 °F
Dew Point 33 °F
Humidity 87%
Rainfall 0.07 in
Snow Depth Not available.
UV 0 out of 12
Pollen Not available.
Air Quality Not available.
Flu Activity Not available.
METAR EGNM 280450Z 26015KT 230V290 9999 FEW015CB SCT029 02/01 Q1007

More Conditions Fewer Conditions

10-Day Weather Forecast

Almanac

Astronomy

Apr. 28, 2015 Rise Set
Actual Time
Civil Twilight
Nautical Twilight
Astronomical Twilight
Moon
Length of Visible Light
Length of Day
Tomorrow will be .
, % of the Moon is Illuminated

Today's Extremes

Country Highs Country Lows

Community

WunderPhotos

Upload Photos

1,817,584 photos uploaded!

WunderBlogs® & News

Nearby

Air Quality

  Air Quality AQ Index Pollutant
Not available.

Snow Depth

Station Depth Elevation

Earthquake Activity

City Distance Mag. Time & Date
Minimum magnitude displayed is 2.5.

Coastal Water Temperatures

Place Temperature

Stations

Nearby Weather Stations

Station Location Temp. Windchill Dew Point Humidity Wind Precip. Elev Updated Type